sensor_id;sensor_type;location;lat;lon;timestamp;P1;durP1;ratioP1;P2;durP2;ratioP2
1651;SDS011;823;49.028;8.454;2023-03-23T00:03:02;1.10;;;0.80;;
1651;SDS011;823;49.028;8.454;2023-03-23T00:08:02;3.90;;;0.93;;
1651;SDS011;823;49.028;8.454;2023-03-23T00:13:03;2.10;;;1.10;;
1651;SDS011;823;49.028;8.454;2023-03-23T00:18:04;1.50;;;0.80;;
1651;SDS011;823;49.028;8.454;2023-03-23T00:23:05;1.47;;;0.83;;
1651;SDS011;823;49.028;8.454;2023-03-23T00:28:06;1.77;;;1.00;;
1651;SDS011;823;49.028;8.454;2023-03-23T00:33:07;1.48;;;1.23;;
1651;SDS011;823;49.028;8.454;2023-03-23T00:38:08;1.60;;;0.87;;
1651;SDS011;823;49.028;8.454;2023-03-23T00:43:08;1.90;;;0.83;;
1651;SDS011;823;49.028;8.454;2023-03-23T00:48:13;2.10;;;0.83;;
1651;SDS011;823;49.028;8.454;2023-03-23T00:53:14;4.53;;;0.75;;
1651;SDS011;823;49.028;8.454;2023-03-23T00:58:16;1.43;;;0.93;;
1651;SDS011;823;49.028;8.454;2023-03-23T01:03:16;2.60;;;0.87;;
1651;SDS011;823;49.028;8.454;2023-03-23T01:08:18;4.03;;;1.80;;
1651;SDS011;823;49.028;8.454;2023-03-23T01:13:19;1.20;;;0.77;;
1651;SDS011;823;49.028;8.454;2023-03-23T01:18:19;1.63;;;0.70;;
1651;SDS011;823;49.028;8.454;2023-03-23T01:23:20;2.05;;;1.00;;
1651;SDS011;823;49.028;8.454;2023-03-23T01:28:20;6.88;;;1.20;;
1651;SDS011;823;49.028;8.454;2023-03-23T01:33:20;1.90;;;1.30;;
1651;SDS011;823;49.028;8.454;2023-03-23T01:38:21;6.03;;;0.90;;
1651;SDS011;823;49.028;8.454;2023-03-23T01:43:21;4.20;;;1.03;;
1651;SDS011;823;49.028;8.454;2023-03-23T01:48:22;2.03;;;1.10;;
1651;SDS011;823;49.028;8.454;2023-03-23T01:53:31;6.00;;;1.50;;
1651;SDS011;823;49.028;8.454;2023-03-23T01:58:38;1.70;;;0.70;;
1651;SDS011;823;49.028;8.454;2023-03-23T02:03:41;3.53;;;1.00;;
1651;SDS011;823;49.028;8.454;2023-03-23T02:08:43;3.10;;;1.20;;
1651;SDS011;823;49.028;8.454;2023-03-23T02:13:45;1.87;;;0.90;;
1651;SDS011;823;49.028;8.454;2023-03-23T02:18:50;5.40;;;1.73;;
1651;SDS011;823;49.028;8.454;2023-03-23T02:24:15;2.50;;;0.80;;
1651;SDS011;823;49.028;8.454;2023-03-23T02:34:56;1.90;;;1.00;;
1651;SDS011;823;49.028;8.454;2023-03-23T02:40:02;3.00;;;1.03;;
1651;SDS011;823;49.028;8.454;2023-03-23T02:45:11;2.33;;;0.80;;
1651;SDS011;823;49.028;8.454;2023-03-23T02:50:14;1.60;;;0.93;;
1651;SDS011;823;49.028;8.454;2023-03-23T02:55:17;3.00;;;1.10;;
1651;SDS011;823;49.028;8.454;2023-03-23T03:00:19;1.87;;;1.13;;
1651;SDS011;823;49.028;8.454;2023-03-23T03:15:36;1.67;;;1.10;;
1651;SDS011;823;49.028;8.454;2023-03-23T03:20:44;2.80;;;1.03;;
1651;SDS011;823;49.028;8.454;2023-03-23T03:25:47;2.30;;;1.33;;
1651;SDS011;823;49.028;8.454;2023-03-23T03:30:56;3.83;;;1.30;;
1651;SDS011;823;49.028;8.454;2023-03-23T03:36:01;2.53;;;1.20;;
1651;SDS011;823;49.028;8.454;2023-03-23T03:41:08;1.97;;;1.30;;
1651;SDS011;823;49.028;8.454;2023-03-23T03:46:09;4.60;;;1.33;;
1651;SDS011;823;49.028;8.454;2023-03-23T03:51:09;1.77;;;1.13;;
1651;SDS011;823;49.028;8.454;2023-03-23T03:56:10;2.17;;;1.00;;
1651;SDS011;823;49.028;8.454;2023-03-23T04:01:11;6.87;;;1.33;;
1651;SDS011;823;49.028;8.454;2023-03-23T04:06:11;1.17;;;0.80;;
1651;SDS011;823;49.028;8.454;2023-03-23T04:11:13;3.40;;;1.00;;
1651;SDS011;823;49.028;8.454;2023-03-23T04:16:14;1.77;;;1.00;;
1651;SDS011;823;49.028;8.454;2023-03-23T04:21:16;2.30;;;1.30;;
1651;SDS011;823;49.028;8.454;2023-03-23T04:26:17;3.43;;;1.20;;
1651;SDS011;823;49.028;8.454;2023-03-23T04:31:18;3.47;;;1.20;;
1651;SDS011;823;49.028;8.454;2023-03-23T04:36:18;1.60;;;1.10;;
1651;SDS011;823;49.028;8.454;2023-03-23T04:41:19;2.00;;;1.00;;
1651;SDS011;823;49.028;8.454;2023-03-23T04:46:19;6.28;;;1.42;;
1651;SDS011;823;49.028;8.454;2023-03-23T04:51:21;2.50;;;1.30;;
1651;SDS011;823;49.028;8.454;2023-03-23T04:56:21;2.10;;;1.33;;
1651;SDS011;823;49.028;8.454;2023-03-23T05:01:21;2.77;;;1.40;;
1651;SDS011;823;49.028;8.454;2023-03-23T05:06:22;2.80;;;1.30;;
1651;SDS011;823;49.028;8.454;2023-03-23T05:11:22;1.88;;;1.27;;
1651;SDS011;823;49.028;8.454;2023-03-23T05:16:22;1.88;;;1.10;;
1651;SDS011;823;49.028;8.454;2023-03-23T05:21:23;1.70;;;0.98;;
1651;SDS011;823;49.028;8.454;2023-03-23T05:26:23;6.63;;;1.70;;
1651;SDS011;823;49.028;8.454;2023-03-23T05:31:25;2.17;;;1.20;;
1651;SDS011;823;49.028;8.454;2023-03-23T05:36:25;3.40;;;1.70;;
1651;SDS011;823;49.028;8.454;2023-03-23T05:41:25;2.65;;;1.48;;
1651;SDS011;823;49.028;8.454;2023-03-23T05:46:26;3.20;;;1.40;;
1651;SDS011;823;49.028;8.454;2023-03-23T05:51:26;4.33;;;1.30;;
1651;SDS011;823;49.028;8.454;2023-03-23T05:56:27;4.43;;;1.70;;
1651;SDS011;823;49.028;8.454;2023-03-23T06:01:30;1.57;;;1.30;;
1651;SDS011;823;49.028;8.454;2023-03-23T06:06:31;1.97;;;1.50;;
1651;SDS011;823;49.028;8.454;2023-03-23T06:11:32;4.20;;;1.57;;
1651;SDS011;823;49.028;8.454;2023-03-23T06:16:33;4.00;;;2.30;;
1651;SDS011;823;49.028;8.454;2023-03-23T06:21:33;2.50;;;1.65;;
1651;SDS011;823;49.028;8.454;2023-03-23T06:26:35;4.10;;;1.57;;
1651;SDS011;823;49.028;8.454;2023-03-23T06:31:38;3.67;;;2.33;;
1651;SDS011;823;49.028;8.454;2023-03-23T06:36:41;5.10;;;2.10;;
1651;SDS011;823;49.028;8.454;2023-03-23T06:41:43;3.67;;;1.93;;
1651;SDS011;823;49.028;8.454;2023-03-23T06:46:43;3.53;;;1.83;;
1651;SDS011;823;49.028;8.454;2023-03-23T06:51:44;5.57;;;1.83;;
1651;SDS011;823;49.028;8.454;2023-03-23T06:56:44;3.15;;;1.95;;
1651;SDS011;823;49.028;8.454;2023-03-23T07:01:44;3.87;;;1.80;;
1651;SDS011;823;49.028;8.454;2023-03-23T07:06:46;3.50;;;1.87;;
1651;SDS011;823;49.028;8.454;2023-03-23T07:11:46;2.50;;;1.70;;
1651;SDS011;823;49.028;8.454;2023-03-23T07:16:47;4.07;;;1.97;;
1651;SDS011;823;49.028;8.454;2023-03-23T07:21:48;2.60;;;1.60;;
1651;SDS011;823;49.028;8.454;2023-03-23T07:26:49;2.43;;;1.70;;
1651;SDS011;823;49.028;8.454;2023-03-23T07:31:49;4.05;;;1.90;;
1651;SDS011;823;49.028;8.454;2023-03-23T07:36:49;5.60;;;1.60;;
1651;SDS011;823;49.028;8.454;2023-03-23T07:41:50;2.45;;;1.65;;
1651;SDS011;823;49.028;8.454;2023-03-23T07:46:50;4.60;;;1.80;;
1651;SDS011;823;49.028;8.454;2023-03-23T07:51:51;3.17;;;1.83;;
1651;SDS011;823;49.028;8.454;2023-03-23T07:56:51;3.42;;;1.90;;
1651;SDS011;823;49.028;8.454;2023-03-23T08:01:51;2.30;;;1.63;;
1651;SDS011;823;49.028;8.454;2023-03-23T08:06:52;3.70;;;1.90;;
1651;SDS011;823;49.028;8.454;2023-03-23T08:11:52;4.45;;;1.90;;
1651;SDS011;823;49.028;8.454;2023-03-23T08:16:53;3.70;;;1.87;;
1651;SDS011;823;49.028;8.454;2023-03-23T08:21:55;4.70;;;1.97;;
1651;SDS011;823;49.028;8.454;2023-03-23T08:26:56;1.83;;;1.63;;
1651;SDS011;823;49.028;8.454;2023-03-23T08:31:57;2.63;;;1.60;;
1651;SDS011;823;49.028;8.454;2023-03-23T08:36:57;2.10;;;1.80;;
1651;SDS011;823;49.028;8.454;2023-03-23T08:41:58;6.57;;;2.00;;
1651;SDS011;823;49.028;8.454;2023-03-23T08:46:58;2.58;;;1.60;;
1651;SDS011;823;49.028;8.454;2023-03-23T08:51:59;1.42;;;1.10;;
1651;SDS011;823;49.028;8.454;2023-03-23T08:56:59;2.60;;;1.20;;
1651;SDS011;823;49.028;8.454;2023-03-23T09:02:02;5.47;;;1.40;;
1651;SDS011;823;49.028;8.454;2023-03-23T09:07:02;2.17;;;1.37;;
1651;SDS011;823;49.028;8.454;2023-03-23T09:12:02;2.97;;;1.23;;
1651;SDS011;823;49.028;8.454;2023-03-23T09:17:03;3.03;;;1.37;;
1651;SDS011;823;49.028;8.454;2023-03-23T09:22:03;2.17;;;1.20;;
1651;SDS011;823;49.028;8.454;2023-03-23T09:27:04;3.30;;;1.73;;
1651;SDS011;823;49.028;8.454;2023-03-23T09:32:04;3.38;;;1.23;;
1651;SDS011;823;49.028;8.454;2023-03-23T09:37:05;3.67;;;0.90;;
1651;SDS011;823;49.028;8.454;2023-03-23T09:42:09;1.33;;;0.93;;
1651;SDS011;823;49.028;8.454;2023-03-23T09:47:24;3.90;;;0.87;;
1651;SDS011;823;49.028;8.454;2023-03-23T09:52:38;4.43;;;1.20;;
1651;SDS011;823;49.028;8.454;2023-03-23T09:57:59;2.23;;;1.10;;
1651;SDS011;823;49.028;8.454;2023-03-23T10:03:13;1.50;;;1.00;;
1651;SDS011;823;49.028;8.454;2023-03-23T10:08:20;1.27;;;1.00;;
1651;SDS011;823;49.028;8.454;2023-03-23T10:14:06;1.53;;;1.00;;
1651;SDS011;823;49.028;8.454;2023-03-23T10:24:17;2.17;;;1.20;;
1651;SDS011;823;49.028;8.454;2023-03-23T10:29:26;2.90;;;0.93;;
1651;SDS011;823;49.028;8.454;2023-03-23T10:34:47;1.83;;;0.97;;
1651;SDS011;823;49.028;8.454;2023-03-23T10:39:56;1.93;;;1.17;;
1651;SDS011;823;49.028;8.454;2023-03-23T10:45:00;3.83;;;1.20;;
1651;SDS011;823;49.028;8.454;2023-03-23T10:50:14;1.63;;;0.93;;
1651;SDS011;823;49.028;8.454;2023-03-23T10:55:18;1.47;;;1.00;;
1651;SDS011;823;49.028;8.454;2023-03-23T11:00:23;2.13;;;1.10;;
1651;SDS011;823;49.028;8.454;2023-03-23T11:05:41;2.20;;;1.20;;
1651;SDS011;823;49.028;8.454;2023-03-23T11:15:52;2.47;;;1.30;;
1651;SDS011;823;49.028;8.454;2023-03-23T11:20:56;2.35;;;1.23;;
1651;SDS011;823;49.028;8.454;2023-03-23T11:26:14;1.73;;;1.20;;
1651;SDS011;823;49.028;8.454;2023-03-23T11:31:18;2.80;;;1.47;;
1651;SDS011;823;49.028;8.454;2023-03-23T11:36:29;4.03;;;1.50;;
1651;SDS011;823;49.028;8.454;2023-03-23T11:41:33;2.03;;;1.30;;
1651;SDS011;823;49.028;8.454;2023-03-23T11:46:47;1.63;;;1.03;;
1651;SDS011;823;49.028;8.454;2023-03-23T11:51:59;2.40;;;1.33;;
1651;SDS011;823;49.028;8.454;2023-03-23T11:57:09;2.90;;;1.20;;
1651;SDS011;823;49.028;8.454;2023-03-23T12:07:35;1.90;;;1.23;;
1651;SDS011;823;49.028;8.454;2023-03-23T12:45:37;2.90;;;1.10;;
1651;SDS011;823;49.028;8.454;2023-03-23T12:51:09;1.23;;;0.80;;
1651;SDS011;823;49.028;8.454;2023-03-23T13:01:33;1.87;;;1.20;;
1651;SDS011;823;49.028;8.454;2023-03-23T13:06:39;1.37;;;0.93;;
1651;SDS011;823;49.028;8.454;2023-03-23T13:11:42;1.90;;;0.90;;
1651;SDS011;823;49.028;8.454;2023-03-23T13:16:47;2.83;;;0.87;;
1651;SDS011;823;49.028;8.454;2023-03-23T13:22:14;2.23;;;1.00;;
1651;SDS011;823;49.028;8.454;2023-03-23T13:27:28;6.23;;;1.00;;
1651;SDS011;823;49.028;8.454;2023-03-23T13:37:34;1.10;;;0.97;;
1651;SDS011;823;49.028;8.454;2023-03-23T13:42:52;1.70;;;0.90;;
1651;SDS011;823;49.028;8.454;2023-03-23T13:48:18;12.87;;;2.40;;
1651;SDS011;823;49.028;8.454;2023-03-23T13:53:22;2.27;;;1.30;;
1651;SDS011;823;49.028;8.454;2023-03-23T13:58:26;5.13;;;1.50;;
1651;SDS011;823;49.028;8.454;2023-03-23T14:03:33;3.00;;;1.47;;
1651;SDS011;823;49.028;8.454;2023-03-23T14:08:38;3.30;;;1.50;;
1651;SDS011;823;49.028;8.454;2023-03-23T14:13:45;2.90;;;1.37;;
1651;SDS011;823;49.028;8.454;2023-03-23T14:18:48;3.60;;;1.80;;
1651;SDS011;823;49.028;8.454;2023-03-23T14:23:52;2.80;;;1.40;;
1651;SDS011;823;49.028;8.454;2023-03-23T14:28:54;3.07;;;1.83;;
1651;SDS011;823;49.028;8.454;2023-03-23T14:33:55;4.80;;;1.77;;
1651;SDS011;823;49.028;8.454;2023-03-23T14:38:58;3.70;;;1.67;;
1651;SDS011;823;49.028;8.454;2023-03-23T14:44:07;3.37;;;2.03;;
1651;SDS011;823;49.028;8.454;2023-03-23T14:49:16;2.23;;;1.40;;
1651;SDS011;823;49.028;8.454;2023-03-23T14:54:21;2.70;;;1.67;;
1651;SDS011;823;49.028;8.454;2023-03-23T14:59:23;3.83;;;1.37;;
1651;SDS011;823;49.028;8.454;2023-03-23T15:04:24;3.80;;;1.63;;
1651;SDS011;823;49.028;8.454;2023-03-23T15:09:26;2.97;;;1.37;;
1651;SDS011;823;49.028;8.454;2023-03-23T15:14:30;3.90;;;1.43;;
1651;SDS011;823;49.028;8.454;2023-03-23T15:19:36;3.00;;;1.53;;
1651;SDS011;823;49.028;8.454;2023-03-23T15:24:41;2.47;;;1.60;;
1651;SDS011;823;49.028;8.454;2023-03-23T15:29:52;4.30;;;1.70;;
1651;SDS011;823;49.028;8.454;2023-03-23T15:34:54;7.37;;;2.20;;
1651;SDS011;823;49.028;8.454;2023-03-23T15:39:58;3.90;;;2.30;;
1651;SDS011;823;49.028;8.454;2023-03-23T15:50:16;3.30;;;1.93;;
1651;SDS011;823;49.028;8.454;2023-03-23T16:00:27;4.20;;;1.70;;
1651;SDS011;823;49.028;8.454;2023-03-23T16:05:28;2.53;;;1.40;;
1651;SDS011;823;49.028;8.454;2023-03-23T16:10:28;2.95;;;1.35;;
1651;SDS011;823;49.028;8.454;2023-03-23T16:15:29;4.73;;;1.63;;
1651;SDS011;823;49.028;8.454;2023-03-23T16:20:30;5.10;;;1.93;;
1651;SDS011;823;49.028;8.454;2023-03-23T16:25:32;5.30;;;3.40;;
1651;SDS011;823;49.028;8.454;2023-03-23T16:30:32;6.05;;;3.38;;
1651;SDS011;823;49.028;8.454;2023-03-23T16:35:35;3.73;;;2.83;;
1651;SDS011;823;49.028;8.454;2023-03-23T16:40:36;2.53;;;1.60;;
1651;SDS011;823;49.028;8.454;2023-03-23T16:45:37;3.73;;;2.13;;
1651;SDS011;823;49.028;8.454;2023-03-23T16:50:39;16.77;;;7.67;;
1651;SDS011;823;49.028;8.454;2023-03-23T16:55:40;7.60;;;2.73;;
1651;SDS011;823;49.028;8.454;2023-03-23T17:00:41;7.00;;;2.90;;
1651;SDS011;823;49.028;8.454;2023-03-23T17:05:41;5.00;;;2.93;;
1651;SDS011;823;49.028;8.454;2023-03-23T17:10:43;4.90;;;2.70;;
1651;SDS011;823;49.028;8.454;2023-03-23T17:15:44;5.80;;;3.00;;
1651;SDS011;823;49.028;8.454;2023-03-23T17:20:45;6.30;;;3.27;;
1651;SDS011;823;49.028;8.454;2023-03-23T17:25:46;6.23;;;3.73;;
1651;SDS011;823;49.028;8.454;2023-03-23T17:30:47;8.33;;;2.90;;
1651;SDS011;823;49.028;8.454;2023-03-23T17:35:47;5.97;;;3.60;;
1651;SDS011;823;49.028;8.454;2023-03-23T17:40:57;4.63;;;2.80;;
1651;SDS011;823;49.028;8.454;2023-03-23T17:45:58;4.83;;;2.70;;
1651;SDS011;823;49.028;8.454;2023-03-23T17:50:58;7.63;;;3.85;;
1651;SDS011;823;49.028;8.454;2023-03-23T17:56:01;4.20;;;2.80;;
1651;SDS011;823;49.028;8.454;2023-03-23T18:01:03;5.73;;;2.90;;
1651;SDS011;823;49.028;8.454;2023-03-23T18:06:05;4.27;;;2.50;;
1651;SDS011;823;49.028;8.454;2023-03-23T18:11:10;8.07;;;3.93;;
1651;SDS011;823;49.028;8.454;2023-03-23T18:16:10;9.67;;;3.90;;
1651;SDS011;823;49.028;8.454;2023-03-23T18:21:10;5.77;;;3.33;;
1651;SDS011;823;49.028;8.454;2023-03-23T18:26:11;4.10;;;3.00;;
1651;SDS011;823;49.028;8.454;2023-03-23T18:31:13;4.17;;;2.90;;
1651;SDS011;823;49.028;8.454;2023-03-23T18:36:17;6.70;;;2.93;;
1651;SDS011;823;49.028;8.454;2023-03-23T18:41:19;6.10;;;4.17;;
1651;SDS011;823;49.028;8.454;2023-03-23T18:46:19;7.30;;;4.70;;
1651;SDS011;823;49.028;8.454;2023-03-23T18:51:19;8.93;;;4.70;;
1651;SDS011;823;49.028;8.454;2023-03-23T18:56:20;6.40;;;4.30;;
1651;SDS011;823;49.028;8.454;2023-03-23T19:01:20;5.47;;;3.20;;
1651;SDS011;823;49.028;8.454;2023-03-23T19:06:24;4.87;;;3.23;;
1651;SDS011;823;49.028;8.454;2023-03-23T19:11:26;7.10;;;3.00;;
1651;SDS011;823;49.028;8.454;2023-03-23T19:16:27;6.20;;;3.37;;
1651;SDS011;823;49.028;8.454;2023-03-23T19:21:28;3.67;;;2.20;;
1651;SDS011;823;49.028;8.454;2023-03-23T19:26:33;4.60;;;1.63;;
1651;SDS011;823;49.028;8.454;2023-03-23T19:31:38;4.10;;;1.67;;
1651;SDS011;823;49.028;8.454;2023-03-23T19:36:39;3.70;;;1.80;;
1651;SDS011;823;49.028;8.454;2023-03-23T19:41:39;2.30;;;1.70;;
1651;SDS011;823;49.028;8.454;2023-03-23T19:46:40;3.63;;;2.30;;
1651;SDS011;823;49.028;8.454;2023-03-23T19:51:40;4.10;;;1.90;;
1651;SDS011;823;49.028;8.454;2023-03-23T19:56:40;5.13;;;2.00;;
1651;SDS011;823;49.028;8.454;2023-03-23T20:01:42;5.43;;;2.10;;
1651;SDS011;823;49.028;8.454;2023-03-23T20:06:43;3.30;;;2.00;;
1651;SDS011;823;49.028;8.454;2023-03-23T20:11:43;3.20;;;1.60;;
1651;SDS011;823;49.028;8.454;2023-03-23T20:16:44;3.58;;;1.52;;
1651;SDS011;823;49.028;8.454;2023-03-23T20:21:44;3.33;;;1.70;;
1651;SDS011;823;49.028;8.454;2023-03-23T20:26:44;3.83;;;1.67;;
1651;SDS011;823;49.028;8.454;2023-03-23T20:31:45;3.07;;;1.73;;
1651;SDS011;823;49.028;8.454;2023-03-23T20:36:45;4.50;;;1.60;;
1651;SDS011;823;49.028;8.454;2023-03-23T20:41:48;3.40;;;1.83;;
1651;SDS011;823;49.028;8.454;2023-03-23T20:46:51;3.80;;;1.90;;
1651;SDS011;823;49.028;8.454;2023-03-23T20:51:52;4.73;;;2.00;;
1651;SDS011;823;49.028;8.454;2023-03-23T20:56:53;2.00;;;1.80;;
1651;SDS011;823;49.028;8.454;2023-03-23T21:01:53;2.87;;;1.83;;
1651;SDS011;823;49.028;8.454;2023-03-23T21:06:54;4.10;;;1.80;;
1651;SDS011;823;49.028;8.454;2023-03-23T21:11:55;4.50;;;1.80;;
1651;SDS011;823;49.028;8.454;2023-03-23T21:16:56;3.63;;;2.17;;
1651;SDS011;823;49.028;8.454;2023-03-23T21:21:57;5.47;;;2.67;;
1651;SDS011;823;49.028;8.454;2023-03-23T21:26:59;3.83;;;2.10;;
1651;SDS011;823;49.028;8.454;2023-03-23T21:32:00;4.90;;;2.20;;
1651;SDS011;823;49.028;8.454;2023-03-23T21:37:00;7.10;;;2.90;;
1651;SDS011;823;49.028;8.454;2023-03-23T21:42:00;7.20;;;3.13;;
1651;SDS011;823;49.028;8.454;2023-03-23T21:47:03;7.53;;;2.80;;
1651;SDS011;823;49.028;8.454;2023-03-23T21:52:03;3.57;;;2.30;;
1651;SDS011;823;49.028;8.454;2023-03-23T21:57:04;7.93;;;2.80;;
1651;SDS011;823;49.028;8.454;2023-03-23T22:02:04;6.90;;;2.63;;
1651;SDS011;823;49.028;8.454;2023-03-23T22:07:06;10.13;;;2.40;;
1651;SDS011;823;49.028;8.454;2023-03-23T22:12:06;3.70;;;2.37;;
1651;SDS011;823;49.028;8.454;2023-03-23T22:17:08;5.23;;;2.20;;
1651;SDS011;823;49.028;8.454;2023-03-23T22:22:09;4.53;;;3.00;;
1651;SDS011;823;49.028;8.454;2023-03-23T22:27:09;3.70;;;2.78;;
1651;SDS011;823;49.028;8.454;2023-03-23T22:32:09;5.60;;;2.40;;
1651;SDS011;823;49.028;8.454;2023-03-23T22:37:10;3.50;;;2.10;;
1651;SDS011;823;49.028;8.454;2023-03-23T22:42:11;3.10;;;2.23;;
1651;SDS011;823;49.028;8.454;2023-03-23T22:47:11;3.70;;;1.73;;
1651;SDS011;823;49.028;8.454;2023-03-23T22:52:11;6.22;;;2.00;;
1651;SDS011;823;49.028;8.454;2023-03-23T22:57:12;2.37;;;1.50;;
1651;SDS011;823;49.028;8.454;2023-03-23T23:02:13;4.27;;;2.30;;
1651;SDS011;823;49.028;8.454;2023-03-23T23:07:13;3.80;;;2.13;;
1651;SDS011;823;49.028;8.454;2023-03-23T23:12:14;4.10;;;1.80;;
1651;SDS011;823;49.028;8.454;2023-03-23T23:17:14;3.80;;;2.00;;
1651;SDS011;823;49.028;8.454;2023-03-23T23:22:14;6.18;;;2.65;;
1651;SDS011;823;49.028;8.454;2023-03-23T23:27:15;3.97;;;2.33;;
1651;SDS011;823;49.028;8.454;2023-03-23T23:32:15;3.80;;;2.00;;
1651;SDS011;823;49.028;8.454;2023-03-23T23:37:15;4.80;;;2.10;;
1651;SDS011;823;49.028;8.454;2023-03-23T23:42:16;3.60;;;2.20;;
1651;SDS011;823;49.028;8.454;2023-03-23T23:47:16;4.37;;;2.30;;
1651;SDS011;823;49.028;8.454;2023-03-23T23:52:16;4.32;;;2.55;;
1651;SDS011;823;49.028;8.454;2023-03-23T23:57:17;4.20;;;2.17;;
